sensor_id;sensor_type;location;lat;lon;timestamp;temperature;humidity
22771;DHT22;11552;50.786;4.332;2022-11-20T00:02:04;5.80;99.90
22771;DHT22;11552;50.786;4.332;2022-11-20T00:04:29;5.90;99.90
22771;DHT22;11552;50.786;4.332;2022-11-20T00:07:09;5.90;99.90
22771;DHT22;11552;50.786;4.332;2022-11-20T00:09:34;5.80;99.90
22771;DHT22;11552;50.786;4.332;2022-11-20T00:12:00;5.80;99.90
22771;DHT22;11552;50.786;4.332;2022-11-20T00:14:25;5.90;99.90
22771;DHT22;11552;50.786;4.332;2022-11-20T00:16:51;6.00;99.90
22771;DHT22;11552;50.786;4.332;2022-11-20T00:19:16;5.90;99.90
22771;DHT22;11552;50.786;4.332;2022-11-20T00:23:35;5.90;99.90
22771;DHT22;11552;50.786;4.332;2022-11-20T00:26:04;5.90;99.90
22771;DHT22;11552;50.786;4.332;2022-11-20T00:28:30;5.80;99.90
22771;DHT22;11552;50.786;4.332;2022-11-20T00:31:03;5.90;99.90
22771;DHT22;11552;50.786;4.332;2022-11-20T00:33:29;6.10;99.90
22771;DHT22;11552;50.786;4.332;2022-11-20T00:35:58;5.90;99.90
22771;DHT22;11552;50.786;4.332;2022-11-20T00:38:24;6.00;99.90
22771;DHT22;11552;50.786;4.332;2022-11-20T00:40:54;5.90;99.90
22771;DHT22;11552;50.786;4.332;2022-11-20T00:43:19;6.00;99.90
22771;DHT22;11552;50.786;4.332;2022-11-20T00:45:45;5.90;99.90
22771;DHT22;11552;50.786;4.332;2022-11-20T00:48:10;5.90;99.90
22771;DHT22;11552;50.786;4.332;2022-11-20T00:50:36;5.80;99.90
22771;DHT22;11552;50.786;4.332;2022-11-20T00:53:01;5.80;99.90
22771;DHT22;11552;50.786;4.332;2022-11-20T00:55:27;5.80;99.90
22771;DHT22;11552;50.786;4.332;2022-11-20T00:59:02;5.90;99.90
22771;DHT22;11552;50.786;4.332;2022-11-20T01:01:28;5.90;99.90
22771;DHT22;11552;50.786;4.332;2022-11-20T01:03:55;6.00;99.90
22771;DHT22;11552;50.786;4.332;2022-11-20T01:06:35;5.90;99.90
22771;DHT22;11552;50.786;4.332;2022-11-20T01:09:02;5.90;99.90
22771;DHT22;11552;50.786;4.332;2022-11-20T01:11:29;5.70;99.90
22771;DHT22;11552;50.786;4.332;2022-11-20T01:13:55;5.80;99.90
22771;DHT22;11552;50.786;4.332;2022-11-20T01:16:25;5.70;99.90
22771;DHT22;11552;50.786;4.332;2022-11-20T01:21:07;5.60;99.90
22771;DHT22;11552;50.786;4.332;2022-11-20T01:23:33;5.50;99.90
22771;DHT22;11552;50.786;4.332;2022-11-20T01:26:00;5.70;99.90
22771;DHT22;11552;50.786;4.332;2022-11-20T01:28:26;5.70;99.90
22771;DHT22;11552;50.786;4.332;2022-11-20T01:30:52;5.80;99.90
22771;DHT22;11552;50.786;4.332;2022-11-20T01:33:17;5.90;99.90
22771;DHT22;11552;50.786;4.332;2022-11-20T01:35:43;5.90;99.90
22771;DHT22;11552;50.786;4.332;2022-11-20T01:38:08;5.90;99.90
22771;DHT22;11552;50.786;4.332;2022-11-20T01:40:34;5.80;99.90
22771;DHT22;11552;50.786;4.332;2022-11-20T01:43:18;5.70;99.90
22771;DHT22;11552;50.786;4.332;2022-11-20T01:50:06;5.70;99.90
22771;DHT22;11552;50.786;4.332;2022-11-20T01:52:40;5.70;99.90
22771;DHT22;11552;50.786;4.332;2022-11-20T01:55:18;5.70;99.90
22771;DHT22;11552;50.786;4.332;2022-11-20T01:57:44;5.70;99.90
22771;DHT22;11552;50.786;4.332;2022-11-20T02:00:12;5.80;99.90
22771;DHT22;11552;50.786;4.332;2022-11-20T02:02:38;5.80;99.90
22771;DHT22;11552;50.786;4.332;2022-11-20T02:05:09;5.70;99.90
22771;DHT22;11552;50.786;4.332;2022-11-20T02:07:37;5.80;99.90
22771;DHT22;11552;50.786;4.332;2022-11-20T02:10:03;5.80;99.90
22771;DHT22;11552;50.786;4.332;2022-11-20T02:12:28;5.80;99.90
22771;DHT22;11552;50.786;4.332;2022-11-20T02:15:12;5.90;99.90
22771;DHT22;11552;50.786;4.332;2022-11-20T02:19:39;5.90;99.90
22771;DHT22;11552;50.786;4.332;2022-11-20T02:22:06;5.90;99.90
22771;DHT22;11552;50.786;4.332;2022-11-20T02:24:33;5.80;99.90
22771;DHT22;11552;50.786;4.332;2022-11-20T02:29:28;5.70;99.90
22771;DHT22;11552;50.786;4.332;2022-11-20T02:31:56;5.70;99.90
22771;DHT22;11552;50.786;4.332;2022-11-20T02:34:23;5.70;99.90
22771;DHT22;11552;50.786;4.332;2022-11-20T02:36:48;5.70;99.90
22771;DHT22;11552;50.786;4.332;2022-11-20T02:39:15;5.70;99.90
22771;DHT22;11552;50.786;4.332;2022-11-20T02:41:42;5.60;99.90
22771;DHT22;11552;50.786;4.332;2022-11-20T02:44:08;5.60;99.90
22771;DHT22;11552;50.786;4.332;2022-11-20T02:46:33;5.60;99.90
22771;DHT22;11552;50.786;4.332;2022-11-20T02:49:00;5.50;99.90
22771;DHT22;11552;50.786;4.332;2022-11-20T02:51:25;5.60;99.90
22771;DHT22;11552;50.786;4.332;2022-11-20T02:53:51;5.60;99.90
22771;DHT22;11552;50.786;4.332;2022-11-20T02:56:16;5.70;99.90
22771;DHT22;11552;50.786;4.332;2022-11-20T02:58:42;5.80;99.90
22771;DHT22;11552;50.786;4.332;2022-11-20T03:01:07;5.70;99.90
22771;DHT22;11552;50.786;4.332;2022-11-20T03:03:33;5.80;99.90
22771;DHT22;11552;50.786;4.332;2022-11-20T03:05:59;5.80;99.90
22771;DHT22;11552;50.786;4.332;2022-11-20T03:08:24;5.70;99.90
22771;DHT22;11552;50.786;4.332;2022-11-20T03:10:50;5.80;99.90
22771;DHT22;11552;50.786;4.332;2022-11-20T03:13:15;5.80;99.90
22771;DHT22;11552;50.786;4.332;2022-11-20T03:15:41;5.80;99.90
22771;DHT22;11552;50.786;4.332;2022-11-20T03:18:06;6.00;99.90
22771;DHT22;11552;50.786;4.332;2022-11-20T03:20:32;6.00;99.90
22771;DHT22;11552;50.786;4.332;2022-11-20T03:22:58;6.00;99.90
22771;DHT22;11552;50.786;4.332;2022-11-20T03:25:23;6.00;99.90
22771;DHT22;11552;50.786;4.332;2022-11-20T03:27:49;6.00;99.90
22771;DHT22;11552;50.786;4.332;2022-11-20T03:30:14;6.00;99.90
22771;DHT22;11552;50.786;4.332;2022-11-20T03:32:40;6.00;99.90
22771;DHT22;11552;50.786;4.332;2022-11-20T03:35:06;5.90;99.90
22771;DHT22;11552;50.786;4.332;2022-11-20T03:37:31;6.00;99.90
22771;DHT22;11552;50.786;4.332;2022-11-20T03:39:57;5.90;99.90
22771;DHT22;11552;50.786;4.332;2022-11-20T03:42:23;5.80;99.90
22771;DHT22;11552;50.786;4.332;2022-11-20T03:45:07;5.80;99.90
22771;DHT22;11552;50.786;4.332;2022-11-20T03:47:32;5.70;99.90
22771;DHT22;11552;50.786;4.332;2022-11-20T03:49:58;5.80;99.90
22771;DHT22;11552;50.786;4.332;2022-11-20T03:52:23;6.00;99.90
22771;DHT22;11552;50.786;4.332;2022-11-20T03:54:49;6.10;99.90
22771;DHT22;11552;50.786;4.332;2022-11-20T03:57:14;6.20;99.90
22771;DHT22;11552;50.786;4.332;2022-11-20T03:59:40;6.30;99.90
22771;DHT22;11552;50.786;4.332;2022-11-20T04:02:05;6.30;99.90
22771;DHT22;11552;50.786;4.332;2022-11-20T04:04:31;6.10;99.90
22771;DHT22;11552;50.786;4.332;2022-11-20T04:06:56;5.90;99.90
22771;DHT22;11552;50.786;4.332;2022-11-20T04:09:22;5.80;99.90
22771;DHT22;11552;50.786;4.332;2022-11-20T04:11:47;6.00;99.90
22771;DHT22;11552;50.786;4.332;2022-11-20T04:14:13;6.10;99.90
22771;DHT22;11552;50.786;4.332;2022-11-20T04:16:39;6.00;99.90
22771;DHT22;11552;50.786;4.332;2022-11-20T04:19:05;6.10;99.90
22771;DHT22;11552;50.786;4.332;2022-11-20T04:21:31;6.40;99.90
22771;DHT22;11552;50.786;4.332;2022-11-20T04:23:57;6.30;99.90
22771;DHT22;11552;50.786;4.332;2022-11-20T04:26:23;6.40;99.90
22771;DHT22;11552;50.786;4.332;2022-11-20T04:28:49;6.40;99.90
22771;DHT22;11552;50.786;4.332;2022-11-20T04:31:15;6.40;99.90
22771;DHT22;11552;50.786;4.332;2022-11-20T04:33:41;6.50;99.90
22771;DHT22;11552;50.786;4.332;2022-11-20T04:36:11;6.50;99.90
22771;DHT22;11552;50.786;4.332;2022-11-20T04:38:37;6.70;99.90
22771;DHT22;11552;50.786;4.332;2022-11-20T04:42:01;6.50;99.90
22771;DHT22;11552;50.786;4.332;2022-11-20T04:44:45;6.60;99.90
22771;DHT22;11552;50.786;4.332;2022-11-20T04:47:11;6.50;99.90
22771;DHT22;11552;50.786;4.332;2022-11-20T04:49:36;6.60;99.90
22771;DHT22;11552;50.786;4.332;2022-11-20T04:52:02;6.70;99.90
22771;DHT22;11552;50.786;4.332;2022-11-20T04:54:27;6.70;99.90
22771;DHT22;11552;50.786;4.332;2022-11-20T04:56:53;6.90;99.90
22771;DHT22;11552;50.786;4.332;2022-11-20T04:59:18;6.90;99.90
22771;DHT22;11552;50.786;4.332;2022-11-20T05:01:44;6.90;99.90
22771;DHT22;11552;50.786;4.332;2022-11-20T05:04:09;6.90;99.90
22771;DHT22;11552;50.786;4.332;2022-11-20T05:06:35;6.90;99.90
22771;DHT22;11552;50.786;4.332;2022-11-20T05:09:00;6.90;99.90
22771;DHT22;11552;50.786;4.332;2022-11-20T05:11:27;6.80;99.90
22771;DHT22;11552;50.786;4.332;2022-11-20T05:13:54;6.90;99.90
22771;DHT22;11552;50.786;4.332;2022-11-20T05:16:22;6.70;99.90
22771;DHT22;11552;50.786;4.332;2022-11-20T05:18:49;6.60;99.90
22771;DHT22;11552;50.786;4.332;2022-11-20T05:21:14;6.40;99.90
22771;DHT22;11552;50.786;4.332;2022-11-20T05:23:40;6.60;99.90
22771;DHT22;11552;50.786;4.332;2022-11-20T05:26:07;6.80;99.90
22771;DHT22;11552;50.786;4.332;2022-11-20T05:29:41;6.80;99.90
22771;DHT22;11552;50.786;4.332;2022-11-20T05:32:06;6.70;99.90
22771;DHT22;11552;50.786;4.332;2022-11-20T05:34:35;6.70;99.90
22771;DHT22;11552;50.786;4.332;2022-11-20T05:37:00;6.90;99.90
22771;DHT22;11552;50.786;4.332;2022-11-20T05:39:26;7.00;99.90
22771;DHT22;11552;50.786;4.332;2022-11-20T05:41:51;7.00;99.90
22771;DHT22;11552;50.786;4.332;2022-11-20T05:44:37;6.90;99.90
22771;DHT22;11552;50.786;4.332;2022-11-20T05:48:08;7.00;99.90
22771;DHT22;11552;50.786;4.332;2022-11-20T05:50:33;7.00;99.90
22771;DHT22;11552;50.786;4.332;2022-11-20T05:52:59;7.00;99.90
22771;DHT22;11552;50.786;4.332;2022-11-20T05:55:25;7.10;99.90
22771;DHT22;11552;50.786;4.332;2022-11-20T06:00:12;7.00;99.90
22771;DHT22;11552;50.786;4.332;2022-11-20T06:02:38;7.00;99.90
22771;DHT22;11552;50.786;4.332;2022-11-20T06:05:04;6.90;99.90
22771;DHT22;11552;50.786;4.332;2022-11-20T06:07:29;6.90;99.90
22771;DHT22;11552;50.786;4.332;2022-11-20T06:09:55;6.90;99.90
22771;DHT22;11552;50.786;4.332;2022-11-20T06:12:20;6.90;99.90
22771;DHT22;11552;50.786;4.332;2022-11-20T06:14:46;6.90;99.90
22771;DHT22;11552;50.786;4.332;2022-11-20T06:17:11;6.90;99.90
22771;DHT22;11552;50.786;4.332;2022-11-20T06:19:37;6.90;99.90
22771;DHT22;11552;50.786;4.332;2022-11-20T06:23:58;6.90;99.90
22771;DHT22;11552;50.786;4.332;2022-11-20T06:26:24;6.80;99.90
22771;DHT22;11552;50.786;4.332;2022-11-20T06:28:50;6.80;99.90
22771;DHT22;11552;50.786;4.332;2022-11-20T06:31:17;6.80;99.90
22771;DHT22;11552;50.786;4.332;2022-11-20T06:33:43;6.90;99.90
22771;DHT22;11552;50.786;4.332;2022-11-20T06:36:09;6.90;99.90
22771;DHT22;11552;50.786;4.332;2022-11-20T06:38:35;6.90;99.90
22771;DHT22;11552;50.786;4.332;2022-11-20T06:41:00;6.90;99.90
22771;DHT22;11552;50.786;4.332;2022-11-20T06:43:28;6.80;99.90
22771;DHT22;11552;50.786;4.332;2022-11-20T06:45:54;6.60;99.90
22771;DHT22;11552;50.786;4.332;2022-11-20T06:48:20;6.70;99.90
22771;DHT22;11552;50.786;4.332;2022-11-20T06:50:46;6.70;99.90
22771;DHT22;11552;50.786;4.332;2022-11-20T06:56:59;6.90;99.90
22771;DHT22;11552;50.786;4.332;2022-11-20T07:01:54;6.90;99.90
22771;DHT22;11552;50.786;4.332;2022-11-20T07:04:19;7.10;99.90
22771;DHT22;11552;50.786;4.332;2022-11-20T07:06:45;7.10;99.90
22771;DHT22;11552;50.786;4.332;2022-11-20T07:09:10;7.00;99.90
22771;DHT22;11552;50.786;4.332;2022-11-20T07:11:36;7.10;99.90
22771;DHT22;11552;50.786;4.332;2022-11-20T07:14:01;7.20;99.90
22771;DHT22;11552;50.786;4.332;2022-11-20T07:16:27;7.30;99.90
22771;DHT22;11552;50.786;4.332;2022-11-20T07:18:52;7.40;99.90
22771;DHT22;11552;50.786;4.332;2022-11-20T07:21:18;7.40;99.90
22771;DHT22;11552;50.786;4.332;2022-11-20T07:23:43;7.40;99.90
22771;DHT22;11552;50.786;4.332;2022-11-20T07:26:09;7.30;99.90
22771;DHT22;11552;50.786;4.332;2022-11-20T07:29:51;7.30;99.90
22771;DHT22;11552;50.786;4.332;2022-11-20T07:32:16;7.40;99.90
22771;DHT22;11552;50.786;4.332;2022-11-20T07:34:42;7.50;99.90
22771;DHT22;11552;50.786;4.332;2022-11-20T07:37:08;7.50;99.90
22771;DHT22;11552;50.786;4.332;2022-11-20T07:40:56;7.50;99.90
22771;DHT22;11552;50.786;4.332;2022-11-20T07:44:05;7.50;99.90
22771;DHT22;11552;50.786;4.332;2022-11-20T07:46:31;7.50;99.90
22771;DHT22;11552;50.786;4.332;2022-11-20T07:48:56;7.50;99.90
22771;DHT22;11552;50.786;4.332;2022-11-20T07:51:22;7.50;99.90
22771;DHT22;11552;50.786;4.332;2022-11-20T07:53:50;7.70;99.90
22771;DHT22;11552;50.786;4.332;2022-11-20T07:56:15;7.70;99.90
22771;DHT22;11552;50.786;4.332;2022-11-20T07:58:41;7.90;99.90
22771;DHT22;11552;50.786;4.332;2022-11-20T08:01:07;8.00;99.90
22771;DHT22;11552;50.786;4.332;2022-11-20T08:03:33;7.90;99.90
22771;DHT22;11552;50.786;4.332;2022-11-20T08:05:59;7.90;99.90
22771;DHT22;11552;50.786;4.332;2022-11-20T08:08:26;7.80;99.90
22771;DHT22;11552;50.786;4.332;2022-11-20T08:10:51;7.70;99.90
22771;DHT22;11552;50.786;4.332;2022-11-20T08:13:17;7.70;99.90
22771;DHT22;11552;50.786;4.332;2022-11-20T08:16:01;7.70;99.90
22771;DHT22;11552;50.786;4.332;2022-11-20T08:18:27;7.90;99.90
22771;DHT22;11552;50.786;4.332;2022-11-20T08:20:52;8.00;99.90
22771;DHT22;11552;50.786;4.332;2022-11-20T08:23:18;8.10;99.90
22771;DHT22;11552;50.786;4.332;2022-11-20T08:25:43;8.20;99.90
22771;DHT22;11552;50.786;4.332;2022-11-20T08:29:01;8.20;99.90
22771;DHT22;11552;50.786;4.332;2022-11-20T08:33:42;8.10;99.90
22771;DHT22;11552;50.786;4.332;2022-11-20T08:36:08;8.20;99.90
22771;DHT22;11552;50.786;4.332;2022-11-20T08:38:57;8.30;99.90
22771;DHT22;11552;50.786;4.332;2022-11-20T08:41:22;8.40;99.90
22771;DHT22;11552;50.786;4.332;2022-11-20T08:44:09;8.50;99.90
22771;DHT22;11552;50.786;4.332;2022-11-20T08:46:39;8.50;99.90
22771;DHT22;11552;50.786;4.332;2022-11-20T08:49:07;8.50;99.90
22771;DHT22;11552;50.786;4.332;2022-11-20T08:53:10;8.70;99.90
22771;DHT22;11552;50.786;4.332;2022-11-20T08:55:36;8.90;99.90
22771;DHT22;11552;50.786;4.332;2022-11-20T08:58:05;8.90;99.90
22771;DHT22;11552;50.786;4.332;2022-11-20T09:00:31;9.00;99.90
22771;DHT22;11552;50.786;4.332;2022-11-20T09:02:57;9.00;99.90
22771;DHT22;11552;50.786;4.332;2022-11-20T09:05:46;9.20;99.90
22771;DHT22;11552;50.786;4.332;2022-11-20T09:08:11;9.20;99.90
22771;DHT22;11552;50.786;4.332;2022-11-20T09:11:14;9.30;99.90
22771;DHT22;11552;50.786;4.332;2022-11-20T09:13:40;9.30;99.90
22771;DHT22;11552;50.786;4.332;2022-11-20T09:18:13;9.40;99.90
22771;DHT22;11552;50.786;4.332;2022-11-20T09:20:38;9.70;99.90
22771;DHT22;11552;50.786;4.332;2022-11-20T09:23:04;9.60;99.90
22771;DHT22;11552;50.786;4.332;2022-11-20T09:25:30;9.50;99.90
22771;DHT22;11552;50.786;4.332;2022-11-20T09:27:56;9.50;99.90
22771;DHT22;11552;50.786;4.332;2022-11-20T09:32:39;9.50;99.90
22771;DHT22;11552;50.786;4.332;2022-11-20T09:35:05;9.60;99.90
22771;DHT22;11552;50.786;4.332;2022-11-20T09:38:41;9.50;99.90
22771;DHT22;11552;50.786;4.332;2022-11-20T09:41:13;9.70;99.90
22771;DHT22;11552;50.786;4.332;2022-11-20T09:43:46;9.80;99.90
22771;DHT22;11552;50.786;4.332;2022-11-20T09:51:28;10.10;99.90
22771;DHT22;11552;50.786;4.332;2022-11-20T09:56:10;10.20;99.90
22771;DHT22;11552;50.786;4.332;2022-11-20T09:58:47;10.00;99.90
22771;DHT22;11552;50.786;4.332;2022-11-20T10:04:44;10.00;99.90
22771;DHT22;11552;50.786;4.332;2022-11-20T10:07:19;9.70;99.90
22771;DHT22;11552;50.786;4.332;2022-11-20T10:09:50;9.80;99.90
22771;DHT22;11552;50.786;4.332;2022-11-20T10:25:19;10.20;99.90
22771;DHT22;11552;50.786;4.332;2022-11-20T10:30:12;10.30;99.90
22771;DHT22;11552;50.786;4.332;2022-11-20T10:34:34;10.40;99.90
22771;DHT22;11552;50.786;4.332;2022-11-20T10:37:09;10.60;99.90
22771;DHT22;11552;50.786;4.332;2022-11-20T10:42:11;10.60;99.90
22771;DHT22;11552;50.786;4.332;2022-11-20T10:44:39;10.60;99.90
22771;DHT22;11552;50.786;4.332;2022-11-20T10:47:26;10.60;99.90
22771;DHT22;11552;50.786;4.332;2022-11-20T10:49:53;10.60;99.90
22771;DHT22;11552;50.786;4.332;2022-11-20T10:54:59;10.60;99.90
22771;DHT22;11552;50.786;4.332;2022-11-20T11:00:15;10.60;99.90
22771;DHT22;11552;50.786;4.332;2022-11-20T11:07:44;10.50;99.90
22771;DHT22;11552;50.786;4.332;2022-11-20T11:10:48;10.30;99.90
22771;DHT22;11552;50.786;4.332;2022-11-20T11:13:22;10.20;99.90
22771;DHT22;11552;50.786;4.332;2022-11-20T11:16:40;10.50;99.90
22771;DHT22;11552;50.786;4.332;2022-11-20T11:19:34;10.60;99.90
22771;DHT22;11552;50.786;4.332;2022-11-20T11:23:02;10.60;99.90
22771;DHT22;11552;50.786;4.332;2022-11-20T11:27:46;10.60;99.90
22771;DHT22;11552;50.786;4.332;2022-11-20T11:32:33;10.70;99.90
22771;DHT22;11552;50.786;4.332;2022-11-20T11:34:59;10.40;99.90
22771;DHT22;11552;50.786;4.332;2022-11-20T11:37:24;10.30;99.90
22771;DHT22;11552;50.786;4.332;2022-11-20T11:42:12;10.30;99.90
22771;DHT22;11552;50.786;4.332;2022-11-20T11:44:43;10.20;99.90
22771;DHT22;11552;50.786;4.332;2022-11-20T11:47:32;10.10;99.90
22771;DHT22;11552;50.786;4.332;2022-11-20T11:54:15;10.20;99.90
22771;DHT22;11552;50.786;4.332;2022-11-20T11:56:42;10.10;99.90
22771;DHT22;11552;50.786;4.332;2022-11-20T11:59:09;10.00;99.90
22771;DHT22;11552;50.786;4.332;2022-11-20T12:01:44;10.00;99.90
22771;DHT22;11552;50.786;4.332;2022-11-20T12:06:38;9.60;99.90
22771;DHT22;11552;50.786;4.332;2022-11-20T12:09:05;9.50;99.90
22771;DHT22;11552;50.786;4.332;2022-11-20T12:11:39;9.50;99.90
22771;DHT22;11552;50.786;4.332;2022-11-20T12:19:56;9.40;99.90
22771;DHT22;11552;50.786;4.332;2022-11-20T12:30:18;9.30;99.90
22771;DHT22;11552;50.786;4.332;2022-11-20T12:43:19;9.70;99.90
22771;DHT22;11552;50.786;4.332;2022-11-20T12:56:41;10.10;99.90
22771;DHT22;11552;50.786;4.332;2022-11-20T13:04:41;10.10;99.90
22771;DHT22;11552;50.786;4.332;2022-11-20T13:07:12;10.20;99.90
22771;DHT22;11552;50.786;4.332;2022-11-20T13:09:42;10.10;99.90
22771;DHT22;11552;50.786;4.332;2022-11-20T13:12:25;10.00;99.90
22771;DHT22;11552;50.786;4.332;2022-11-20T13:14:55;9.90;99.90
22771;DHT22;11552;50.786;4.332;2022-11-20T13:24:59;9.60;99.90
22771;DHT22;11552;50.786;4.332;2022-11-20T13:27:24;9.60;99.90
22771;DHT22;11552;50.786;4.332;2022-11-20T13:30:00;9.70;99.90
22771;DHT22;11552;50.786;4.332;2022-11-20T13:32:26;9.70;99.90
22771;DHT22;11552;50.786;4.332;2022-11-20T13:34:58;9.60;99.90
22771;DHT22;11552;50.786;4.332;2022-11-20T13:37:34;9.50;99.90
22771;DHT22;11552;50.786;4.332;2022-11-20T13:42:39;9.30;99.90
22771;DHT22;11552;50.786;4.332;2022-11-20T13:45:09;9.50;99.90
22771;DHT22;11552;50.786;4.332;2022-11-20T13:48:26;9.30;99.90
22771;DHT22;11552;50.786;4.332;2022-11-20T13:50:55;9.20;99.90
22771;DHT22;11552;50.786;4.332;2022-11-20T13:58:35;9.40;99.90
22771;DHT22;11552;50.786;4.332;2022-11-20T14:03:51;9.50;99.90
22771;DHT22;11552;50.786;4.332;2022-11-20T14:08:47;9.50;99.90
22771;DHT22;11552;50.786;4.332;2022-11-20T14:11:20;9.50;99.90
22771;DHT22;11552;50.786;4.332;2022-11-20T14:16:50;9.30;99.90
22771;DHT22;11552;50.786;4.332;2022-11-20T14:24:21;9.20;99.90
22771;DHT22;11552;50.786;4.332;2022-11-20T14:26:48;9.20;99.90
22771;DHT22;11552;50.786;4.332;2022-11-20T14:29:14;9.10;99.90
22771;DHT22;11552;50.786;4.332;2022-11-20T14:31:42;9.00;99.90
22771;DHT22;11552;50.786;4.332;2022-11-20T14:34:17;8.90;99.90
22771;DHT22;11552;50.786;4.332;2022-11-20T14:36:44;9.00;99.90
22771;DHT22;11552;50.786;4.332;2022-11-20T14:39:30;9.00;99.90
22771;DHT22;11552;50.786;4.332;2022-11-20T14:41:56;9.00;99.90
22771;DHT22;11552;50.786;4.332;2022-11-20T14:45:15;9.00;99.90
22771;DHT22;11552;50.786;4.332;2022-11-20T14:47:41;9.00;99.90
22771;DHT22;11552;50.786;4.332;2022-11-20T14:50:12;9.00;99.90
22771;DHT22;11552;50.786;4.332;2022-11-20T14:52:38;9.00;99.90
22771;DHT22;11552;50.786;4.332;2022-11-20T14:55:04;9.10;99.90
22771;DHT22;11552;50.786;4.332;2022-11-20T14:59:25;9.10;99.90
22771;DHT22;11552;50.786;4.332;2022-11-20T15:01:58;9.20;99.90
22771;DHT22;11552;50.786;4.332;2022-11-20T15:06:49;9.20;99.90
22771;DHT22;11552;50.786;4.332;2022-11-20T15:09:35;9.20;99.90
22771;DHT22;11552;50.786;4.332;2022-11-20T15:12:01;9.20;99.90
22771;DHT22;11552;50.786;4.332;2022-11-20T15:14:27;9.30;99.90
22771;DHT22;11552;50.786;4.332;2022-11-20T15:17:17;9.30;99.90
22771;DHT22;11552;50.786;4.332;2022-11-20T15:19:43;9.50;99.90
22771;DHT22;11552;50.786;4.332;2022-11-20T15:22:11;9.40;99.90
22771;DHT22;11552;50.786;4.332;2022-11-20T15:24:38;9.50;99.90
22771;DHT22;11552;50.786;4.332;2022-11-20T15:27:03;9.60;99.90
22771;DHT22;11552;50.786;4.332;2022-11-20T15:29:49;9.70;99.90
22771;DHT22;11552;50.786;4.332;2022-11-20T15:32:55;9.60;99.90
22771;DHT22;11552;50.786;4.332;2022-11-20T15:36:35;9.50;99.90
22771;DHT22;11552;50.786;4.332;2022-11-20T15:39:00;9.60;99.90
22771;DHT22;11552;50.786;4.332;2022-11-20T15:41:27;9.60;99.90
22771;DHT22;11552;50.786;4.332;2022-11-20T15:43:53;9.70;99.90
22771;DHT22;11552;50.786;4.332;2022-11-20T15:46:21;9.80;99.90
22771;DHT22;11552;50.786;4.332;2022-11-20T15:48:51;9.80;99.90
22771;DHT22;11552;50.786;4.332;2022-11-20T15:53:45;9.80;99.90
22771;DHT22;11552;50.786;4.332;2022-11-20T15:56:11;9.70;99.90
22771;DHT22;11552;50.786;4.332;2022-11-20T15:58:38;9.60;99.90
22771;DHT22;11552;50.786;4.332;2022-11-20T16:01:04;9.60;99.90
22771;DHT22;11552;50.786;4.332;2022-11-20T16:03:30;9.50;99.90
22771;DHT22;11552;50.786;4.332;2022-11-20T16:05:55;9.50;99.90
22771;DHT22;11552;50.786;4.332;2022-11-20T16:08:21;9.60;99.90
22771;DHT22;11552;50.786;4.332;2022-11-20T16:10:46;9.60;99.90
22771;DHT22;11552;50.786;4.332;2022-11-20T16:13:13;9.60;99.90
22771;DHT22;11552;50.786;4.332;2022-11-20T16:15:58;9.70;99.90
22771;DHT22;11552;50.786;4.332;2022-11-20T16:18:24;9.70;99.90
22771;DHT22;11552;50.786;4.332;2022-11-20T16:20:53;9.60;99.90
22771;DHT22;11552;50.786;4.332;2022-11-20T16:23:19;9.60;99.90
22771;DHT22;11552;50.786;4.332;2022-11-20T16:25:45;9.80;99.90
22771;DHT22;11552;50.786;4.332;2022-11-20T16:28:11;9.70;99.90
22771;DHT22;11552;50.786;4.332;2022-11-20T16:30:36;9.70;99.90
22771;DHT22;11552;50.786;4.332;2022-11-20T16:34:10;9.60;99.90
22771;DHT22;11552;50.786;4.332;2022-11-20T16:36:35;9.50;99.90
22771;DHT22;11552;50.786;4.332;2022-11-20T16:39:04;9.50;99.90
22771;DHT22;11552;50.786;4.332;2022-11-20T16:41:30;9.60;99.90
22771;DHT22;11552;50.786;4.332;2022-11-20T16:43:57;9.50;99.90
22771;DHT22;11552;50.786;4.332;2022-11-20T16:47:06;9.40;99.90
22771;DHT22;11552;50.786;4.332;2022-11-20T16:49:32;9.30;99.90
22771;DHT22;11552;50.786;4.332;2022-11-20T16:51:58;9.30;99.90
22771;DHT22;11552;50.786;4.332;2022-11-20T16:54:23;9.20;99.90
22771;DHT22;11552;50.786;4.332;2022-11-20T16:56:49;9.20;99.90
22771;DHT22;11552;50.786;4.332;2022-11-20T16:59:16;9.20;99.90
22771;DHT22;11552;50.786;4.332;2022-11-20T17:01:58;9.30;99.90
22771;DHT22;11552;50.786;4.332;2022-11-20T17:04:24;9.30;99.90
22771;DHT22;11552;50.786;4.332;2022-11-20T17:06:49;9.30;99.90
22771;DHT22;11552;50.786;4.332;2022-11-20T17:09:15;9.30;99.90
22771;DHT22;11552;50.786;4.332;2022-11-20T17:11:40;9.40;99.90
22771;DHT22;11552;50.786;4.332;2022-11-20T17:14:06;9.30;99.90
22771;DHT22;11552;50.786;4.332;2022-11-20T17:16:33;9.40;99.90
22771;DHT22;11552;50.786;4.332;2022-11-20T17:18:59;9.30;99.90
22771;DHT22;11552;50.786;4.332;2022-11-20T17:21:25;9.30;99.90
22771;DHT22;11552;50.786;4.332;2022-11-20T17:23:51;9.30;99.90
22771;DHT22;11552;50.786;4.332;2022-11-20T17:27:28;9.10;99.90
22771;DHT22;11552;50.786;4.332;2022-11-20T17:29:54;9.00;99.90
22771;DHT22;11552;50.786;4.332;2022-11-20T17:35:00;9.00;99.90
22771;DHT22;11552;50.786;4.332;2022-11-20T17:37:26;9.10;99.90
22771;DHT22;11552;50.786;4.332;2022-11-20T17:40:11;9.00;99.90
22771;DHT22;11552;50.786;4.332;2022-11-20T17:42:36;9.00;99.90
22771;DHT22;11552;50.786;4.332;2022-11-20T17:45:02;9.10;99.90
22771;DHT22;11552;50.786;4.332;2022-11-20T17:47:28;9.20;99.90
22771;DHT22;11552;50.786;4.332;2022-11-20T17:49:54;9.20;99.90
22771;DHT22;11552;50.786;4.332;2022-11-20T17:54:31;9.20;99.90
22771;DHT22;11552;50.786;4.332;2022-11-20T17:56:56;9.30;99.90
22771;DHT22;11552;50.786;4.332;2022-11-20T17:59:40;9.30;99.90
22771;DHT22;11552;50.786;4.332;2022-11-20T18:02:06;9.40;99.90
22771;DHT22;11552;50.786;4.332;2022-11-20T18:04:31;9.30;99.90
22771;DHT22;11552;50.786;4.332;2022-11-20T18:07:27;9.20;99.90
22771;DHT22;11552;50.786;4.332;2022-11-20T18:09:53;9.20;99.90
22771;DHT22;11552;50.786;4.332;2022-11-20T18:12:18;9.30;99.90
22771;DHT22;11552;50.786;4.332;2022-11-20T18:17:20;9.40;99.90
22771;DHT22;11552;50.786;4.332;2022-11-20T18:19:46;9.50;99.90
22771;DHT22;11552;50.786;4.332;2022-11-20T18:22:12;9.50;99.90
22771;DHT22;11552;50.786;4.332;2022-11-20T18:24:38;9.60;99.90
22771;DHT22;11552;50.786;4.332;2022-11-20T18:27:04;9.40;99.90
22771;DHT22;11552;50.786;4.332;2022-11-20T18:29:30;9.20;99.90
22771;DHT22;11552;50.786;4.332;2022-11-20T18:31:56;9.20;99.90
22771;DHT22;11552;50.786;4.332;2022-11-20T18:34:22;9.00;99.90
22771;DHT22;11552;50.786;4.332;2022-11-20T18:38:15;9.00;99.90
22771;DHT22;11552;50.786;4.332;2022-11-20T18:40:40;9.10;99.90
22771;DHT22;11552;50.786;4.332;2022-11-20T18:43:09;9.10;99.90
22771;DHT22;11552;50.786;4.332;2022-11-20T18:46:00;8.90;99.90
22771;DHT22;11552;50.786;4.332;2022-11-20T18:48:25;8.80;99.90
22771;DHT22;11552;50.786;4.332;2022-11-20T18:51:19;8.80;99.90
22771;DHT22;11552;50.786;4.332;2022-11-20T18:53:45;8.90;99.90
22771;DHT22;11552;50.786;4.332;2022-11-20T18:56:10;9.00;99.90
22771;DHT22;11552;50.786;4.332;2022-11-20T18:58:36;8.90;99.90
22771;DHT22;11552;50.786;4.332;2022-11-20T19:01:05;9.00;99.90